sensor_id;sensor_type;location;lat;lon;timestamp;pressure;altitude;pressure_sealevel;temperature;humidity
75815;BME280;70031;45.570;14.228;2023-09-12T00:00:35;96988.06;;;11.64;100.00
75815;BME280;70031;45.570;14.228;2023-09-12T00:02:36;96992.75;;;11.59;100.00
75815;BME280;70031;45.570;14.228;2023-09-12T00:04:36;96985.38;;;11.45;100.00
75815;BME280;70031;45.570;14.228;2023-09-12T00:06:37;96987.66;;;11.33;100.00
75815;BME280;70031;45.570;14.228;2023-09-12T00:08:37;96986.50;;;11.20;100.00
75815;BME280;70031;45.570;14.228;2023-09-12T00:10:38;96982.88;;;11.06;100.00
75815;BME280;70031;45.570;14.228;2023-09-12T00:12:38;96984.84;;;11.01;100.00
75815;BME280;70031;45.570;14.228;2023-09-12T00:14:38;96982.44;;;10.99;100.00
75815;BME280;70031;45.570;14.228;2023-09-12T00:16:38;96981.63;;;10.98;100.00
75815;BME280;70031;45.570;14.228;2023-09-12T00:18:39;96987.47;;;11.06;100.00
75815;BME280;70031;45.570;14.228;2023-09-12T00:20:40;96991.22;;;11.10;100.00
75815;BME280;70031;45.570;14.228;2023-09-12T00:22:40;96985.25;;;11.13;100.00
75815;BME280;70031;45.570;14.228;2023-09-12T00:24:40;96985.38;;;11.03;100.00
75815;BME280;70031;45.570;14.228;2023-09-12T00:26:41;96980.44;;;11.10;100.00
75815;BME280;70031;45.570;14.228;2023-09-12T00:28:41;96976.72;;;11.24;100.00
75815;BME280;70031;45.570;14.228;2023-09-12T00:30:41;96978.53;;;11.34;100.00
75815;BME280;70031;45.570;14.228;2023-09-12T00:32:42;96971.81;;;11.32;100.00
75815;BME280;70031;45.570;14.228;2023-09-12T00:34:42;96976.19;;;11.28;100.00
75815;BME280;70031;45.570;14.228;2023-09-12T00:36:43;96975.66;;;11.25;100.00
75815;BME280;70031;45.570;14.228;2023-09-12T00:38:43;96970.84;;;11.22;100.00
75815;BME280;70031;45.570;14.228;2023-09-12T00:40:43;96971.59;;;11.28;100.00
75815;BME280;70031;45.570;14.228;2023-09-12T00:42:44;96976.34;;;11.36;100.00
75815;BME280;70031;45.570;14.228;2023-09-12T00:44:44;96969.56;;;11.39;100.00
75815;BME280;70031;45.570;14.228;2023-09-12T00:46:45;96979.34;;;11.53;100.00
75815;BME280;70031;45.570;14.228;2023-09-12T00:48:49;96977.72;;;11.52;100.00
75815;BME280;70031;45.570;14.228;2023-09-12T00:50:51;96972.41;;;11.47;100.00
75815;BME280;70031;45.570;14.228;2023-09-12T00:52:53;96972.63;;;11.51;100.00
75815;BME280;70031;45.570;14.228;2023-09-12T00:54:55;96969.16;;;11.50;100.00
75815;BME280;70031;45.570;14.228;2023-09-12T00:56:55;96966.72;;;11.30;100.00
75815;BME280;70031;45.570;14.228;2023-09-12T00:58:56;96963.56;;;11.23;100.00
75815;BME280;70031;45.570;14.228;2023-09-12T01:00:57;96959.25;;;11.22;100.00
75815;BME280;70031;45.570;14.228;2023-09-12T01:02:58;96961.97;;;11.22;100.00
75815;BME280;70031;45.570;14.228;2023-09-12T01:04:59;96961.97;;;11.22;100.00
75815;BME280;70031;45.570;14.228;2023-09-12T01:06:59;96961.38;;;11.25;100.00
75815;BME280;70031;45.570;14.228;2023-09-12T01:08:59;96965.31;;;11.33;100.00
75815;BME280;70031;45.570;14.228;2023-09-12T01:11:00;96961.78;;;11.37;100.00
75815;BME280;70031;45.570;14.228;2023-09-12T01:13:01;96963.88;;;11.40;100.00
75815;BME280;70031;45.570;14.228;2023-09-12T01:15:02;96971.09;;;11.45;100.00
75815;BME280;70031;45.570;14.228;2023-09-12T01:17:06;96974.00;;;11.48;100.00
75815;BME280;70031;45.570;14.228;2023-09-12T01:19:06;96974.69;;;11.59;100.00
75815;BME280;70031;45.570;14.228;2023-09-12T01:25:50;96965.72;;;11.64;100.00
75815;BME280;70031;45.570;14.228;2023-09-12T01:28:02;96965.84;;;11.53;100.00
75815;BME280;70031;45.570;14.228;2023-09-12T01:30:05;96963.00;;;11.45;100.00
75815;BME280;70031;45.570;14.228;2023-09-12T01:32:06;96949.91;;;11.38;100.00
75815;BME280;70031;45.570;14.228;2023-09-12T01:34:10;96964.16;;;11.39;100.00
75815;BME280;70031;45.570;14.228;2023-09-12T01:36:11;96961.19;;;11.40;100.00
75815;BME280;70031;45.570;14.228;2023-09-12T01:38:13;96958.44;;;11.45;100.00
75815;BME280;70031;45.570;14.228;2023-09-12T01:40:13;96955.94;;;11.49;100.00
75815;BME280;70031;45.570;14.228;2023-09-12T01:42:17;96946.69;;;11.55;100.00
75815;BME280;70031;45.570;14.228;2023-09-12T01:44:19;96946.19;;;11.53;100.00
75815;BME280;70031;45.570;14.228;2023-09-12T01:46:22;96939.72;;;11.54;100.00
75815;BME280;70031;45.570;14.228;2023-09-12T01:48:26;96945.44;;;11.47;100.00
75815;BME280;70031;45.570;14.228;2023-09-12T01:50:31;96950.94;;;11.42;100.00
75815;BME280;70031;45.570;14.228;2023-09-12T01:52:32;96946.59;;;11.41;100.00
75815;BME280;70031;45.570;14.228;2023-09-12T01:54:33;96947.13;;;11.43;100.00
75815;BME280;70031;45.570;14.228;2023-09-12T01:56:34;96950.41;;;11.40;100.00
75815;BME280;70031;45.570;14.228;2023-09-12T01:58:36;96952.25;;;11.45;100.00
75815;BME280;70031;45.570;14.228;2023-09-12T02:00:36;96946.69;;;11.55;100.00
75815;BME280;70031;45.570;14.228;2023-09-12T02:02:37;96952.88;;;11.56;100.00
75815;BME280;70031;45.570;14.228;2023-09-12T02:04:38;96953.34;;;11.63;100.00
75815;BME280;70031;45.570;14.228;2023-09-12T02:06:38;96952.72;;;11.66;100.00
75815;BME280;70031;45.570;14.228;2023-09-12T02:08:39;96954.56;;;11.70;100.00
75815;BME280;70031;45.570;14.228;2023-09-12T02:10:39;96949.47;;;11.88;100.00
75815;BME280;70031;45.570;14.228;2023-09-12T02:12:40;96941.22;;;11.79;100.00
75815;BME280;70031;45.570;14.228;2023-09-12T02:14:40;96941.28;;;11.74;100.00
75815;BME280;70031;45.570;14.228;2023-09-12T02:16:40;96945.38;;;11.90;100.00
75815;BME280;70031;45.570;14.228;2023-09-12T02:18:41;96946.84;;;11.82;100.00
75815;BME280;70031;45.570;14.228;2023-09-12T02:20:41;96954.00;;;11.92;100.00
75815;BME280;70031;45.570;14.228;2023-09-12T02:22:45;96951.81;;;11.94;100.00
75815;BME280;70031;45.570;14.228;2023-09-12T02:24:46;96946.13;;;11.96;100.00
75815;BME280;70031;45.570;14.228;2023-09-12T02:26:46;96962.16;;;11.87;100.00
75815;BME280;70031;45.570;14.228;2023-09-12T02:28:47;96960.88;;;11.85;100.00
75815;BME280;70031;45.570;14.228;2023-09-12T02:30:47;96958.88;;;11.90;100.00
75815;BME280;70031;45.570;14.228;2023-09-12T02:32:47;96951.31;;;11.92;100.00
75815;BME280;70031;45.570;14.228;2023-09-12T02:34:48;96955.06;;;11.91;100.00
75815;BME280;70031;45.570;14.228;2023-09-12T02:36:48;96958.00;;;11.95;100.00
75815;BME280;70031;45.570;14.228;2023-09-12T02:38:49;96960.19;;;11.93;100.00
75815;BME280;70031;45.570;14.228;2023-09-12T02:40:49;96961.34;;;12.05;100.00
75815;BME280;70031;45.570;14.228;2023-09-12T02:42:50;96963.97;;;12.11;100.00
75815;BME280;70031;45.570;14.228;2023-09-12T02:44:50;96968.75;;;12.14;100.00
75815;BME280;70031;45.570;14.228;2023-09-12T02:46:52;96966.28;;;12.17;100.00
75815;BME280;70031;45.570;14.228;2023-09-12T02:48:52;96964.34;;;12.04;100.00
75815;BME280;70031;45.570;14.228;2023-09-12T02:50:53;96963.41;;;11.76;100.00
75815;BME280;70031;45.570;14.228;2023-09-12T02:52:53;96960.28;;;11.88;100.00
75815;BME280;70031;45.570;14.228;2023-09-12T02:54:54;96962.91;;;11.93;100.00
75815;BME280;70031;45.570;14.228;2023-09-12T02:56:54;96964.50;;;11.94;100.00
75815;BME280;70031;45.570;14.228;2023-09-12T02:58:55;96960.09;;;11.98;100.00
75815;BME280;70031;45.570;14.228;2023-09-12T03:00:55;96961.19;;;11.97;100.00
75815;BME280;70031;45.570;14.228;2023-09-12T03:02:56;96958.75;;;12.00;100.00
75815;BME280;70031;45.570;14.228;2023-09-12T03:04:57;96959.47;;;11.87;100.00
75815;BME280;70031;45.570;14.228;2023-09-12T03:06:57;96954.06;;;11.87;100.00
75815;BME280;70031;45.570;14.228;2023-09-12T03:08:57;96955.38;;;11.71;100.00
75815;BME280;70031;45.570;14.228;2023-09-12T03:10:58;96950.34;;;11.64;100.00
75815;BME280;70031;45.570;14.228;2023-09-12T03:12:58;96957.91;;;11.62;100.00
75815;BME280;70031;45.570;14.228;2023-09-12T03:14:58;96954.84;;;11.50;100.00
75815;BME280;70031;45.570;14.228;2023-09-12T03:16:59;96960.53;;;11.48;100.00
75815;BME280;70031;45.570;14.228;2023-09-12T03:19:01;96955.78;;;11.40;100.00
75815;BME280;70031;45.570;14.228;2023-09-12T03:21:03;96948.59;;;11.36;100.00
75815;BME280;70031;45.570;14.228;2023-09-12T03:23:03;96961.63;;;11.47;100.00
75815;BME280;70031;45.570;14.228;2023-09-12T03:25:04;96956.88;;;11.39;100.00
75815;BME280;70031;45.570;14.228;2023-09-12T03:27:06;96950.38;;;11.21;100.00
75815;BME280;70031;45.570;14.228;2023-09-12T03:29:10;96945.00;;;11.21;100.00
75815;BME280;70031;45.570;14.228;2023-09-12T03:31:13;96951.94;;;11.28;100.00
75815;BME280;70031;45.570;14.228;2023-09-12T03:33:17;96944.41;;;11.24;100.00
75815;BME280;70031;45.570;14.228;2023-09-12T03:35:17;96948.97;;;11.05;100.00
75815;BME280;70031;45.570;14.228;2023-09-12T03:37:17;96953.91;;;10.98;100.00
75815;BME280;70031;45.570;14.228;2023-09-12T03:39:18;96947.25;;;10.90;100.00
75815;BME280;70031;45.570;14.228;2023-09-12T03:41:18;96945.09;;;10.92;100.00
75815;BME280;70031;45.570;14.228;2023-09-12T03:43:21;96941.47;;;11.02;100.00
75815;BME280;70031;45.570;14.228;2023-09-12T03:45:22;96943.63;;;11.00;100.00
75815;BME280;70031;45.570;14.228;2023-09-12T03:47:23;96943.28;;;11.07;100.00
75815;BME280;70031;45.570;14.228;2023-09-12T03:49:23;96945.47;;;11.05;100.00
75815;BME280;70031;45.570;14.228;2023-09-12T03:51:26;96935.63;;;10.95;100.00
75815;BME280;70031;45.570;14.228;2023-09-12T03:53:27;96946.56;;;11.04;100.00
75815;BME280;70031;45.570;14.228;2023-09-12T03:55:28;96950.56;;;11.06;100.00
75815;BME280;70031;45.570;14.228;2023-09-12T03:57:28;96947.47;;;11.18;100.00
75815;BME280;70031;45.570;14.228;2023-09-12T03:59:28;96958.16;;;11.23;100.00
75815;BME280;70031;45.570;14.228;2023-09-12T04:01:29;96957.53;;;11.31;100.00
75815;BME280;70031;45.570;14.228;2023-09-12T04:03:29;96953.03;;;11.27;100.00
75815;BME280;70031;45.570;14.228;2023-09-12T04:05:30;96959.22;;;11.27;100.00
75815;BME280;70031;45.570;14.228;2023-09-12T04:07:33;96960.47;;;11.35;100.00
75815;BME280;70031;45.570;14.228;2023-09-12T04:09:33;96961.84;;;11.51;100.00
75815;BME280;70031;45.570;14.228;2023-09-12T04:11:34;96956.69;;;11.54;100.00
75815;BME280;70031;45.570;14.228;2023-09-12T04:13:34;96959.72;;;11.48;100.00
75815;BME280;70031;45.570;14.228;2023-09-12T04:15:34;96965.28;;;11.57;100.00
75815;BME280;70031;45.570;14.228;2023-09-12T04:17:35;96969.16;;;11.50;100.00
75815;BME280;70031;45.570;14.228;2023-09-12T04:19:35;96967.50;;;11.49;100.00
75815;BME280;70031;45.570;14.228;2023-09-12T04:21:36;96960.81;;;11.47;100.00
75815;BME280;70031;45.570;14.228;2023-09-12T04:23:36;96961.56;;;11.52;100.00
75815;BME280;70031;45.570;14.228;2023-09-12T04:25:37;96958.72;;;11.44;100.00
75815;BME280;70031;45.570;14.228;2023-09-12T04:27:37;96960.72;;;11.33;100.00
75815;BME280;70031;45.570;14.228;2023-09-12T04:29:37;96962.66;;;11.09;100.00
75815;BME280;70031;45.570;14.228;2023-09-12T04:31:38;96964.28;;;11.10;100.00
75815;BME280;70031;45.570;14.228;2023-09-12T04:33:39;96965.75;;;11.21;100.00
75815;BME280;70031;45.570;14.228;2023-09-12T04:35:39;96953.50;;;11.10;100.00
75815;BME280;70031;45.570;14.228;2023-09-12T04:37:39;96960.25;;;11.07;100.00
75815;BME280;70031;45.570;14.228;2023-09-12T04:39:40;96965.69;;;11.26;100.00
75815;BME280;70031;45.570;14.228;2023-09-12T04:41:40;96973.81;;;11.21;100.00
75815;BME280;70031;45.570;14.228;2023-09-12T04:43:41;96975.59;;;11.07;100.00
75815;BME280;70031;45.570;14.228;2023-09-12T04:45:41;96976.03;;;10.95;100.00
75815;BME280;70031;45.570;14.228;2023-09-12T04:47:41;96972.56;;;10.89;100.00
75815;BME280;70031;45.570;14.228;2023-09-12T04:49:43;96981.75;;;10.88;100.00
75815;BME280;70031;45.570;14.228;2023-09-12T04:51:44;96980.53;;;11.00;100.00
75815;BME280;70031;45.570;14.228;2023-09-12T04:53:44;96980.19;;;11.06;100.00
75815;BME280;70031;45.570;14.228;2023-09-12T04:55:44;96978.31;;;11.07;100.00
75815;BME280;70031;45.570;14.228;2023-09-12T04:57:45;96984.50;;;11.07;100.00
75815;BME280;70031;45.570;14.228;2023-09-12T04:59:45;96973.03;;;10.96;100.00
75815;BME280;70031;45.570;14.228;2023-09-12T05:01:45;96976.06;;;10.90;100.00
75815;BME280;70031;45.570;14.228;2023-09-12T05:03:46;96974.50;;;10.84;100.00
75815;BME280;70031;45.570;14.228;2023-09-12T05:05:50;96974.59;;;10.79;100.00
75815;BME280;70031;45.570;14.228;2023-09-12T05:07:50;96976.31;;;10.93;100.00
75815;BME280;70031;45.570;14.228;2023-09-12T05:09:53;96978.72;;;10.95;100.00
75815;BME280;70031;45.570;14.228;2023-09-12T05:11:54;96969.25;;;10.97;100.00
75815;BME280;70031;45.570;14.228;2023-09-12T05:13:54;96988.28;;;10.82;100.00
75815;BME280;70031;45.570;14.228;2023-09-12T05:15:55;96982.41;;;10.75;100.00
75815;BME280;70031;45.570;14.228;2023-09-12T05:17:56;96992.22;;;10.90;100.00
75815;BME280;70031;45.570;14.228;2023-09-12T05:19:57;96981.53;;;10.85;100.00
75815;BME280;70031;45.570;14.228;2023-09-12T05:21:57;96991.44;;;10.89;100.00
75815;BME280;70031;45.570;14.228;2023-09-12T05:24:00;96986.66;;;10.81;100.00
75815;BME280;70031;45.570;14.228;2023-09-12T05:26:00;96989.06;;;10.83;100.00
75815;BME280;70031;45.570;14.228;2023-09-12T05:28:01;97001.09;;;10.90;100.00
75815;BME280;70031;45.570;14.228;2023-09-12T05:30:01;97002.78;;;10.86;100.00
75815;BME280;70031;45.570;14.228;2023-09-12T05:32:02;96999.28;;;10.86;100.00
75815;BME280;70031;45.570;14.228;2023-09-12T05:34:05;96992.53;;;10.88;100.00
75815;BME280;70031;45.570;14.228;2023-09-12T05:36:05;97002.31;;;11.03;100.00
75815;BME280;70031;45.570;14.228;2023-09-12T05:38:06;97000.94;;;11.06;100.00
75815;BME280;70031;45.570;14.228;2023-09-12T05:40:09;96991.09;;;11.20;100.00
75815;BME280;70031;45.570;14.228;2023-09-12T05:42:10;96993.19;;;11.23;100.00
75815;BME280;70031;45.570;14.228;2023-09-12T05:44:10;96992.84;;;11.06;100.00
75815;BME280;70031;45.570;14.228;2023-09-12T05:46:13;96986.66;;;11.05;100.00
75815;BME280;70031;45.570;14.228;2023-09-12T05:48:13;96990.78;;;10.97;100.00
75815;BME280;70031;45.570;14.228;2023-09-12T05:50:13;96980.31;;;10.96;100.00
75815;BME280;70031;45.570;14.228;2023-09-12T05:52:14;96992.56;;;11.07;100.00
75815;BME280;70031;45.570;14.228;2023-09-12T05:54:14;96990.56;;;11.18;100.00
75815;BME280;70031;45.570;14.228;2023-09-12T05:56:15;96995.69;;;11.38;100.00
75815;BME280;70031;45.570;14.228;2023-09-12T05:58:16;96997.94;;;11.31;100.00
75815;BME280;70031;45.570;14.228;2023-09-12T06:00:16;96988.56;;;11.29;100.00
75815;BME280;70031;45.570;14.228;2023-09-12T06:02:17;96994.78;;;11.24;100.00
75815;BME280;70031;45.570;14.228;2023-09-12T06:04:17;96991.38;;;11.18;100.00
75815;BME280;70031;45.570;14.228;2023-09-12T06:06:18;96997.22;;;11.25;100.00
75815;BME280;70031;45.570;14.228;2023-09-12T06:08:18;96995.91;;;11.42;100.00
75815;BME280;70031;45.570;14.228;2023-09-12T06:10:18;96999.00;;;11.54;100.00
75815;BME280;70031;45.570;14.228;2023-09-12T06:12:19;97000.94;;;11.48;100.00
75815;BME280;70031;45.570;14.228;2023-09-12T06:14:19;97004.88;;;11.37;100.00
75815;BME280;70031;45.570;14.228;2023-09-12T06:16:20;96999.03;;;11.30;100.00
75815;BME280;70031;45.570;14.228;2023-09-12T06:18:20;97000.78;;;11.40;100.00
75815;BME280;70031;45.570;14.228;2023-09-12T06:20:21;97006.00;;;11.55;100.00
75815;BME280;70031;45.570;14.228;2023-09-12T06:22:22;96998.59;;;11.42;100.00
75815;BME280;70031;45.570;14.228;2023-09-12T06:24:27;96993.06;;;11.33;100.00
75815;BME280;70031;45.570;14.228;2023-09-12T06:26:28;96998.84;;;11.45;100.00
75815;BME280;70031;45.570;14.228;2023-09-12T06:28:30;96997.09;;;11.36;100.00
75815;BME280;70031;45.570;14.228;2023-09-12T06:30:30;97007.53;;;11.42;100.00
75815;BME280;70031;45.570;14.228;2023-09-12T06:32:31;97009.44;;;11.61;100.00
75815;BME280;70031;45.570;14.228;2023-09-12T06:34:31;97009.59;;;11.69;100.00
75815;BME280;70031;45.570;14.228;2023-09-12T06:36:32;97010.81;;;11.77;100.00
75815;BME280;70031;45.570;14.228;2023-09-12T06:38:32;97018.47;;;12.07;100.00
75815;BME280;70031;45.570;14.228;2023-09-12T06:40:32;97022.19;;;12.30;100.00
75815;BME280;70031;45.570;14.228;2023-09-12T06:42:33;97022.00;;;12.41;100.00
75815;BME280;70031;45.570;14.228;2023-09-12T06:44:33;97010.84;;;12.47;100.00
75815;BME280;70031;45.570;14.228;2023-09-12T06:46:33;97021.09;;;12.31;100.00
75815;BME280;70031;45.570;14.228;2023-09-12T06:48:37;97009.75;;;12.48;100.00
75815;BME280;70031;45.570;14.228;2023-09-12T06:50:37;97006.78;;;12.63;100.00
75815;BME280;70031;45.570;14.228;2023-09-12T06:52:38;97016.91;;;12.72;100.00
75815;BME280;70031;45.570;14.228;2023-09-12T06:54:39;97013.97;;;12.54;100.00
75815;BME280;70031;45.570;14.228;2023-09-12T06:56:39;97017.63;;;12.45;100.00
75815;BME280;70031;45.570;14.228;2023-09-12T06:58:41;97022.28;;;12.25;100.00
75815;BME280;70031;45.570;14.228;2023-09-12T07:00:42;97021.13;;;12.45;100.00
75815;BME280;70031;45.570;14.228;2023-09-12T07:02:42;97036.97;;;12.52;100.00
75815;BME280;70031;45.570;14.228;2023-09-12T07:04:43;97022.41;;;12.34;100.00
75815;BME280;70031;45.570;14.228;2023-09-12T07:06:43;97021.13;;;12.45;100.00
75815;BME280;70031;45.570;14.228;2023-09-12T07:08:44;97021.06;;;12.50;100.00
75815;BME280;70031;45.570;14.228;2023-09-12T07:10:47;97025.00;;;12.39;100.00
75815;BME280;70031;45.570;14.228;2023-09-12T07:12:47;97018.25;;;12.42;100.00
75815;BME280;70031;45.570;14.228;2023-09-12T07:14:48;97022.97;;;12.31;100.00
75815;BME280;70031;45.570;14.228;2023-09-12T07:16:48;97025.81;;;12.40;100.00
75815;BME280;70031;45.570;14.228;2023-09-12T07:18:48;97030.34;;;12.44;100.00
75815;BME280;70031;45.570;14.228;2023-09-12T07:20:58;97022.84;;;12.55;100.00
75815;BME280;70031;45.570;14.228;2023-09-12T07:22:58;97026.84;;;12.44;100.00
75815;BME280;70031;45.570;14.228;2023-09-12T07:24:59;97023.88;;;12.59;100.00
75815;BME280;70031;45.570;14.228;2023-09-12T07:27:00;97015.81;;;12.73;100.00
75815;BME280;70031;45.570;14.228;2023-09-12T07:29:01;97022.63;;;12.84;100.00
75815;BME280;70031;45.570;14.228;2023-09-12T07:31:04;97022.16;;;13.09;100.00
75815;BME280;70031;45.570;14.228;2023-09-12T07:33:07;97026.78;;;13.36;100.00
75815;BME280;70031;45.570;14.228;2023-09-12T07:35:08;97019.97;;;13.39;100.00
75815;BME280;70031;45.570;14.228;2023-09-12T07:37:08;97024.31;;;13.26;100.00
75815;BME280;70031;45.570;14.228;2023-09-12T07:39:11;97030.22;;;13.42;100.00
75815;BME280;70031;45.570;14.228;2023-09-12T07:41:11;97021.25;;;13.69;100.00
75815;BME280;70031;45.570;14.228;2023-09-12T07:43:11;97022.44;;;14.13;100.00
75815;BME280;70031;45.570;14.228;2023-09-12T07:45:12;97020.81;;;14.70;100.00
75815;BME280;70031;45.570;14.228;2023-09-12T07:47:13;97027.69;;;14.76;100.00
75815;BME280;70031;45.570;14.228;2023-09-12T07:49:14;97019.25;;;15.09;100.00
75815;BME280;70031;45.570;14.228;2023-09-12T07:51:15;97017.44;;;14.96;100.00
75815;BME280;70031;45.570;14.228;2023-09-12T07:53:17;97012.47;;;15.29;100.00
75815;BME280;70031;45.570;14.228;2023-09-12T07:55:20;97011.53;;;15.33;100.00
75815;BME280;70031;45.570;14.228;2023-09-12T07:57:21;97015.63;;;15.70;100.00
75815;BME280;70031;45.570;14.228;2023-09-12T07:59:21;97008.03;;;16.16;100.00
75815;BME280;70031;45.570;14.228;2023-09-12T08:01:22;97011.69;;;16.28;100.00
75815;BME280;70031;45.570;14.228;2023-09-12T08:03:22;97013.09;;;16.69;100.00
75815;BME280;70031;45.570;14.228;2023-09-12T08:05:23;97012.75;;;16.79;100.00
75815;BME280;70031;45.570;14.228;2023-09-12T08:07:23;97019.63;;;17.32;100.00
75815;BME280;70031;45.570;14.228;2023-09-12T08:09:23;97003.41;;;17.36;100.00
75815;BME280;70031;45.570;14.228;2023-09-12T08:11:24;97014.78;;;17.67;100.00
75815;BME280;70031;45.570;14.228;2023-09-12T08:13:29;97013.19;;;17.96;100.00
75815;BME280;70031;45.570;14.228;2023-09-12T08:15:29;97013.47;;;18.24;100.00
75815;BME280;70031;45.570;14.228;2023-09-12T08:17:30;97012.22;;;18.55;100.00
75815;BME280;70031;45.570;14.228;2023-09-12T08:19:30;97019.34;;;18.68;100.00
75815;BME280;70031;45.570;14.228;2023-09-12T08:21:30;97012.59;;;18.98;100.00
75815;BME280;70031;45.570;14.228;2023-09-12T08:23:31;97017.72;;;19.00;100.00
75815;BME280;70031;45.570;14.228;2023-09-12T08:25:31;97008.44;;;19.13;100.00
75815;BME280;70031;45.570;14.228;2023-09-12T08:27:32;97010.13;;;19.18;100.00
75815;BME280;70031;45.570;14.228;2023-09-12T08:29:33;97005.69;;;19.25;100.00
75815;BME280;70031;45.570;14.228;2023-09-12T08:31:33;97003.88;;;19.42;100.00
75815;BME280;70031;45.570;14.228;2023-09-12T08:33:33;97003.44;;;19.76;100.00
75815;BME280;70031;45.570;14.228;2023-09-12T08:35:34;96997.25;;;20.04;100.00
75815;BME280;70031;45.570;14.228;2023-09-12T08:37:34;96997.19;;;19.88;100.00
75815;BME280;70031;45.570;14.228;2023-09-12T08:39:44;96996.66;;;20.51;100.00
75815;BME280;70031;45.570;14.228;2023-09-12T08:41:45;97007.66;;;20.26;100.00
75815;BME280;70031;45.570;14.228;2023-09-12T08:43:47;97000.56;;;20.37;100.00
75815;BME280;70031;45.570;14.228;2023-09-12T08:45:48;96995.22;;;20.85;100.00
75815;BME280;70031;45.570;14.228;2023-09-12T08:47:53;96992.88;;;20.99;100.00
75815;BME280;70031;45.570;14.228;2023-09-12T08:49:55;96994.22;;;21.21;100.00
75815;BME280;70031;45.570;14.228;2023-09-12T08:51:56;96988.97;;;21.79;100.00
75815;BME280;70031;45.570;14.228;2023-09-12T08:53:56;97008.63;;;22.35;100.00
75815;BME280;70031;45.570;14.228;2023-09-12T08:55:57;97009.03;;;22.18;100.00
75815;BME280;70031;45.570;14.228;2023-09-12T08:57:58;97002.03;;;22.59;100.00
75815;BME280;70031;45.570;14.228;2023-09-12T09:00:03;97004.69;;;22.94;90.78
75815;BME280;70031;45.570;14.228;2023-09-12T09:02:09;96998.84;;;22.96;81.12
75815;BME280;70031;45.570;14.228;2023-09-12T09:04:10;97000.25;;;22.28;90.16
75815;BME280;70031;45.570;14.228;2023-09-12T09:06:11;97002.19;;;22.86;90.11
75815;BME280;70031;45.570;14.228;2023-09-12T09:08:13;97000.00;;;22.76;96.43
75815;BME280;70031;45.570;14.228;2023-09-12T09:10:15;97004.31;;;22.96;100.00
75815;BME280;70031;45.570;14.228;2023-09-12T09:12:16;96999.13;;;23.14;90.00
75815;BME280;70031;45.570;14.228;2023-09-12T09:14:16;96991.56;;;22.65;82.71
75815;BME280;70031;45.570;14.228;2023-09-12T09:16:18;96990.47;;;22.89;94.23
75815;BME280;70031;45.570;14.228;2023-09-12T09:18:21;96994.06;;;23.62;88.62
75815;BME280;70031;45.570;14.228;2023-09-12T09:20:25;96993.78;;;22.79;82.41
75815;BME280;70031;45.570;14.228;2023-09-12T09:22:26;96988.16;;;23.37;75.93
75815;BME280;70031;45.570;14.228;2023-09-12T09:24:27;96988.00;;;23.75;87.87
75815;BME280;70031;45.570;14.228;2023-09-12T09:26:47;96989.16;;;23.74;78.63
75815;BME280;70031;45.570;14.228;2023-09-12T09:29:20;96989.91;;;24.31;97.35
75815;BME280;70031;45.570;14.228;2023-09-12T09:31:24;96987.31;;;24.12;85.53
75815;BME280;70031;45.570;14.228;2023-09-12T09:33:25;96986.47;;;24.34;78.32
75815;BME280;70031;45.570;14.228;2023-09-12T09:35:27;96986.56;;;23.85;81.90
75815;BME280;70031;45.570;14.228;2023-09-12T09:37:27;96987.09;;;23.94;86.91
75815;BME280;70031;45.570;14.228;2023-09-12T09:39:28;96980.19;;;24.71;72.58
75815;BME280;70031;45.570;14.228;2023-09-12T09:41:31;96984.88;;;25.04;83.31
75815;BME280;70031;45.570;14.228;2023-09-12T09:43:33;96973.66;;;24.49;75.14
75815;BME280;70031;45.570;14.228;2023-09-12T09:45:43;96983.78;;;24.75;74.36
75815;BME280;70031;45.570;14.228;2023-09-12T09:47:44;96989.09;;;24.94;77.79
75815;BME280;70031;45.570;14.228;2023-09-12T09:49:45;96988.28;;;25.31;81.76
75815;BME280;70031;45.570;14.228;2023-09-12T09:51:47;96991.09;;;25.38;77.36
75815;BME280;70031;45.570;14.228;2023-09-12T09:53:51;96983.78;;;25.60;72.52
75815;BME280;70031;45.570;14.228;2023-09-12T09:55:51;96988.44;;;25.49;71.01
75815;BME280;70031;45.570;14.228;2023-09-12T09:57:52;96983.06;;;25.19;71.08
75815;BME280;70031;45.570;14.228;2023-09-12T09:59:53;96984.91;;;26.11;77.14
75815;BME280;70031;45.570;14.228;2023-09-12T10:01:58;96986.72;;;26.51;77.47
75815;BME280;70031;45.570;14.228;2023-09-12T10:04:00;96980.91;;;25.97;75.08
75815;BME280;70031;45.570;14.228;2023-09-12T10:06:04;96984.53;;;26.12;71.89
75815;BME280;70031;45.570;14.228;2023-09-12T10:08:07;96976.16;;;25.94;66.79
75815;BME280;70031;45.570;14.228;2023-09-12T10:10:10;96975.31;;;25.83;68.47
75815;BME280;70031;45.570;14.228;2023-09-12T10:12:11;96971.53;;;26.13;63.92
75815;BME280;70031;45.570;14.228;2023-09-12T10:14:13;96964.22;;;26.56;63.50
75815;BME280;70031;45.570;14.228;2023-09-12T10:16:16;96962.50;;;26.23;58.00
75815;BME280;70031;45.570;14.228;2023-09-12T10:18:19;96972.94;;;26.58;56.64
75815;BME280;70031;45.570;14.228;2023-09-12T10:20:29;96964.94;;;26.35;63.40
75815;BME280;70031;45.570;14.228;2023-09-12T10:22:47;96968.22;;;26.58;62.06
75815;BME280;70031;45.570;14.228;2023-09-12T10:24:50;96969.72;;;26.45;62.43
75815;BME280;70031;45.570;14.228;2023-09-12T10:26:51;96967.31;;;26.37;68.77
75815;BME280;70031;45.570;14.228;2023-09-12T10:28:52;96972.88;;;26.47;59.40
75815;BME280;70031;45.570;14.228;2023-09-12T10:30:53;96968.63;;;26.78;62.97